createdAt,value
2022-09-13T00:01:36.439Z,23.00
2022-09-13T00:04:22.439Z,23.00
2022-09-13T00:07:08.938Z,23.00
2022-09-13T00:09:56.045Z,23.10
2022-09-13T00:12:43.121Z,22.50
2022-09-13T00:15:29.122Z,21.10
2022-09-13T00:18:17.996Z,21.20
2022-09-13T00:21:11.544Z,21.80
2022-09-13T00:23:57.333Z,22.10
2022-09-13T00:26:43.957Z,22.40
2022-09-13T00:29:29.616Z,21.30
2022-09-13T00:32:16.672Z,21.40
2022-09-13T00:35:03.960Z,21.90
2022-09-13T00:37:50.460Z,22.10
2022-09-13T00:40:39.911Z,22.20
2022-09-13T00:43:43.511Z,22.40
2022-09-13T00:46:40.809Z,22.30
2022-09-13T00:49:37.192Z,22.30
2022-09-13T00:52:28.094Z,22.20
2022-09-13T00:55:27.785Z,22.10
2022-09-13T00:58:39.309Z,22.10
2022-09-13T01:01:31.213Z,22.10
2022-09-13T01:04:20.391Z,22.20
2022-09-13T01:07:13.890Z,22.10
2022-09-13T01:09:59.464Z,22.10
2022-09-13T01:13:16.976Z,22.10
2022-09-13T01:16:04.011Z,22.10
2022-09-13T01:18:50.050Z,22.20
2022-09-13T01:21:57.830Z,22.30
2022-09-13T01:25:08.129Z,22.40
2022-09-13T01:28:17.525Z,22.50
2022-09-13T01:31:14.293Z,22.60
2022-09-13T01:34:14.817Z,22.50
2022-09-13T01:37:32.603Z,22.50
2022-09-13T01:41:08.429Z,22.40
2022-09-13T01:44:38.063Z,22.20
2022-09-13T01:47:30.360Z,22.10
2022-09-13T01:50:30.883Z,22.10
2022-09-13T01:53:50.271Z,22.00
2022-09-13T01:56:51.588Z,22.10
2022-09-13T01:59:54.415Z,22.10
2022-09-13T02:02:48.081Z,21.80
2022-09-13T02:05:37.661Z,21.80
2022-09-13T02:08:39.198Z,21.70
2022-09-13T02:11:24.968Z,21.80
2022-09-13T02:14:17.102Z,21.80
2022-09-13T02:17:20.604Z,21.50
2022-09-13T02:20:16.206Z,21.00
2022-09-13T02:23:08.132Z,20.60
2022-09-13T02:25:56.853Z,21.10
2022-09-13T02:28:48.610Z,21.40
2022-09-13T02:31:48.067Z,21.70
2022-09-13T02:34:48.343Z,21.80
2022-09-13T02:37:38.129Z,21.80
2022-09-13T02:40:31.403Z,21.80
2022-09-13T02:43:31.551Z,21.90
2022-09-13T02:46:48.106Z,21.90
2022-09-13T02:49:33.966Z,21.30
2022-09-13T02:52:53.380Z,21.00
2022-09-13T02:56:12.947Z,21.40
2022-09-13T02:59:04.108Z,21.60
2022-09-13T03:02:11.078Z,21.60
2022-09-13T03:04:57.634Z,21.70
2022-09-13T03:07:43.980Z,21.70
2022-09-13T03:10:41.297Z,21.70
2022-09-13T03:14:13.919Z,21.80
2022-09-13T03:17:14.998Z,21.90
2022-09-13T03:20:23.635Z,21.80
2022-09-13T03:23:43.200Z,21.60
2022-09-13T03:27:03.803Z,21.50
2022-09-13T03:29:56.388Z,21.30
2022-09-13T03:32:50.947Z,21.20
2022-09-13T03:35:46.090Z,21.00
2022-09-13T03:38:45.606Z,20.90
2022-09-13T03:41:37.471Z,20.80
2022-09-13T03:44:24.936Z,20.90
2022-09-13T03:47:13.411Z,21.00
2022-09-13T03:50:00.806Z,21.10
2022-09-13T03:52:54.909Z,21.10
2022-09-13T03:55:42.910Z,21.10
2022-09-13T03:58:29.158Z,21.10
2022-09-13T04:01:20.369Z,21.10
2022-09-13T04:04:06.302Z,21.20
2022-09-13T04:06:51.744Z,21.20
2022-09-13T04:09:37.727Z,21.30
2022-09-13T04:12:23.818Z,21.30
2022-09-13T04:15:10.357Z,21.40
2022-09-13T04:17:55.784Z,21.40
2022-09-13T04:20:44.525Z,21.40
2022-09-13T04:23:32.402Z,21.30
2022-09-13T04:26:17.759Z,21.30
2022-09-13T04:29:04.151Z,21.20
2022-09-13T04:31:51.224Z,21.20
2022-09-13T04:34:39.836Z,21.00
2022-09-13T04:37:25.277Z,20.80
2022-09-13T04:40:11.510Z,20.70
2022-09-13T04:42:58.317Z,20.50
2022-09-13T04:45:47.043Z,20.50
2022-09-13T04:48:34.585Z,20.50
2022-09-13T04:51:21.775Z,20.50
2022-09-13T04:54:12.001Z,20.50
2022-09-13T04:57:02.159Z,20.50
2022-09-13T04:59:47.576Z,20.40
2022-09-13T05:02:34.721Z,20.70
2022-09-13T05:05:22.476Z,20.70
2022-09-13T05:08:07.781Z,20.80
2022-09-13T05:10:54.398Z,20.80
2022-09-13T05:13:43.621Z,20.80
2022-09-13T05:16:34.369Z,21.60
2022-09-13T05:19:21.073Z,20.70
2022-09-13T05:22:07.159Z,20.80
2022-09-13T05:24:57.490Z,20.80
2022-09-13T05:27:46.166Z,20.70
2022-09-13T05:30:31.970Z,20.60
2022-09-13T05:33:20.235Z,20.60
2022-09-13T05:36:06.992Z,20.70
2022-09-13T05:39:12.335Z,20.70
2022-09-13T05:42:00.328Z,20.70
2022-09-13T05:44:46.184Z,20.90
2022-09-13T05:47:31.668Z,22.70
2022-09-13T05:50:33.155Z,20.80
2022-09-13T05:53:24.245Z,20.80
2022-09-13T05:59:16.950Z,21.00
2022-09-13T06:02:02.903Z,21.10
2022-09-13T06:04:54.202Z,21.30
2022-09-13T06:07:42.669Z,20.90
2022-09-13T06:10:28.619Z,21.50
2022-09-13T06:13:14.127Z,21.70
2022-09-13T06:16:01.970Z,21.70
2022-09-13T06:18:49.198Z,21.90
2022-09-13T06:21:36.001Z,22.10
2022-09-13T06:24:22.397Z,22.20
2022-09-13T06:27:08.195Z,22.50
2022-09-13T06:29:55.413Z,22.70
2022-09-13T06:32:41.423Z,22.90
2022-09-13T06:35:27.844Z,22.80
2022-09-13T06:38:15.148Z,22.80
2022-09-13T06:41:07.444Z,23.00
2022-09-13T06:43:58.827Z,23.20
2022-09-13T06:46:44.502Z,23.30
2022-09-13T06:49:33.066Z,23.40
2022-09-13T06:52:20.602Z,23.60
2022-09-13T06:55:09.560Z,25.10
2022-09-13T06:57:59.074Z,24.00
2022-09-13T07:00:45.005Z,24.10
2022-09-13T07:03:33.735Z,24.10
2022-09-13T07:06:23.663Z,24.00
2022-09-13T07:09:16.051Z,24.10
2022-09-13T07:12:02.579Z,24.50
2022-09-13T07:14:50.067Z,23.80
2022-09-13T07:17:36.027Z,21.90
2022-09-13T07:20:24.015Z,23.40
2022-09-13T07:23:13.610Z,24.10
2022-09-13T07:26:02.287Z,24.60
2022-09-13T07:29:07.145Z,24.60
2022-09-13T07:31:59.385Z,24.80
2022-09-13T07:34:50.074Z,24.70
2022-09-13T07:37:35.755Z,24.90
2022-09-13T07:46:59.064Z,25.20
2022-09-13T07:49:45.901Z,25.30
2022-09-13T07:52:35.345Z,25.90
2022-09-13T07:55:21.308Z,26.50
2022-09-13T07:58:11.440Z,27.80
2022-09-13T08:01:05.260Z,29.20
2022-09-13T08:03:59.814Z,28.90
2022-09-13T08:07:08.281Z,29.60
2022-09-13T08:09:59.080Z,30.60
2022-09-13T08:12:51.046Z,31.20
2022-09-13T08:18:52.165Z,32.70
2022-09-13T08:21:41.206Z,32.40
2022-09-13T08:24:35.826Z,31.70
2022-09-13T08:30:33.782Z,31.90
2022-09-13T08:33:38.320Z,31.20
2022-09-13T08:43:07.081Z,34.60
2022-09-13T08:57:59.078Z,32.50
2022-09-13T09:09:18.301Z,34.10
2022-09-13T09:12:24.843Z,33.90
2022-09-13T09:21:59.546Z,32.40
2022-09-13T09:25:04.477Z,33.00
2022-09-13T09:31:27.798Z,34.50
2022-09-13T09:38:21.841Z,35.50
2022-09-13T09:41:36.651Z,34.80
2022-09-13T09:44:36.914Z,34.40
2022-09-13T09:47:47.206Z,34.40
2022-09-13T09:51:02.595Z,35.80
2022-09-13T09:53:54.952Z,34.80
2022-09-13T09:57:08.179Z,34.50
2022-09-13T10:00:15.140Z,34.50
2022-09-13T10:03:09.271Z,35.00
2022-09-13T10:06:12.759Z,36.10
2022-09-13T10:09:23.010Z,35.90
2022-09-13T10:12:26.666Z,35.20
2022-09-13T10:15:22.485Z,37.50
2022-09-13T10:18:42.935Z,37.20
2022-09-13T10:21:27.765Z,36.50
2022-09-13T10:24:21.547Z,34.50
2022-09-13T10:27:23.373Z,34.90
2022-09-13T10:30:37.048Z,37.10
2022-09-13T10:33:40.109Z,37.50
2022-09-13T10:36:53.391Z,36.20
2022-09-13T10:39:55.790Z,36.20
2022-09-13T10:42:50.599Z,37.10
2022-09-13T10:45:38.736Z,38.50
2022-09-13T10:48:25.647Z,37.90
2022-09-13T10:51:36.904Z,37.30
2022-09-13T10:54:25.554Z,36.80
2022-09-13T10:57:37.598Z,35.80
2022-09-13T11:00:39.395Z,37.60
2022-09-13T11:03:25.275Z,37.80
2022-09-13T11:06:29.709Z,36.00
2022-09-13T11:09:24.079Z,35.10
2022-09-13T11:12:39.618Z,36.80
2022-09-13T11:15:48.054Z,38.30
2022-09-13T11:19:09.475Z,37.10
2022-09-13T11:22:19.564Z,37.10
2022-09-13T11:25:24.906Z,37.50
2022-09-13T11:28:41.391Z,36.60
2022-09-13T11:31:56.770Z,35.60
2022-09-13T11:35:04.727Z,35.70
2022-09-13T11:37:54.635Z,37.00
2022-09-13T11:40:54.666Z,34.70
2022-09-13T11:44:08.266Z,35.10
2022-09-13T11:47:21.060Z,36.20
2022-09-13T11:53:30.171Z,36.00
2022-09-13T11:56:20.334Z,38.30
2022-09-13T11:59:29.884Z,36.60
2022-09-13T12:02:49.005Z,37.40
2022-09-13T12:05:50.551Z,36.60
2022-09-13T12:08:42.688Z,34.50
2022-09-13T12:11:34.689Z,32.40
2022-09-13T12:14:25.765Z,32.50
2022-09-13T12:17:30.234Z,32.90
2022-09-13T12:20:25.695Z,30.80
2022-09-13T12:23:44.942Z,30.80
2022-09-13T12:26:45.337Z,30.50
2022-09-13T12:29:39.882Z,30.70
2022-09-13T12:32:27.030Z,30.90
2022-09-13T12:35:34.312Z,30.90
2022-09-13T12:38:42.757Z,30.00
2022-09-13T12:41:47.706Z,29.60
2022-09-13T12:44:52.766Z,29.70
2022-09-13T12:48:11.406Z,30.10
2022-09-13T12:51:24.261Z,30.00
2022-09-13T12:54:17.531Z,29.80
2022-09-13T12:57:09.638Z,29.90
2022-09-13T13:00:25.357Z,30.00
2022-09-13T13:03:19.724Z,30.30
2022-09-13T13:06:22.100Z,29.70
2022-09-13T13:09:27.925Z,30.00
2022-09-13T13:12:38.728Z,30.60
2022-09-13T13:15:25.716Z,30.90
2022-09-13T13:18:23.248Z,30.80
2022-09-13T13:21:27.726Z,30.30
2022-09-13T13:24:16.792Z,29.80
2022-09-13T13:27:34.226Z,29.80
2022-09-13T13:30:40.411Z,30.10
2022-09-13T13:44:02.719Z,30.30
2022-09-13T13:46:53.513Z,30.00
2022-09-13T13:49:40.421Z,29.60
2022-09-13T13:52:26.550Z,29.90
2022-09-13T13:55:46.973Z,29.80
2022-09-13T13:58:58.660Z,29.90
2022-09-13T14:01:48.692Z,30.40
2022-09-13T14:04:53.057Z,30.40
2022-09-13T14:08:15.300Z,29.90
2022-09-13T14:11:23.273Z,29.90
2022-09-13T14:14:25.041Z,29.70
2022-09-13T14:17:35.814Z,30.30
2022-09-13T14:20:28.368Z,30.20
2022-09-13T14:23:19.217Z,29.60
2022-09-13T14:26:06.505Z,30.60
2022-09-13T14:28:54.181Z,30.60
2022-09-13T14:31:42.636Z,30.40
2022-09-13T14:34:38.877Z,30.20
2022-09-13T14:37:30.109Z,30.20
2022-09-13T14:40:22.982Z,30.20
2022-09-13T14:43:24.976Z,30.50
2022-09-13T14:46:25.790Z,30.90
2022-09-13T14:49:21.942Z,30.50
2022-09-13T14:52:16.949Z,30.00
2022-09-13T14:55:14.618Z,29.70
2022-09-13T14:58:05.668Z,29.90
2022-09-13T15:00:58.805Z,29.70
2022-09-13T15:03:46.119Z,29.90
2022-09-13T15:06:40.616Z,29.70
2022-09-13T15:09:29.659Z,30.10
2022-09-13T15:12:26.116Z,30.10
2022-09-13T15:15:26.417Z,29.90
2022-09-13T15:18:20.418Z,29.70
2022-09-13T15:21:15.377Z,29.40
2022-09-13T15:24:01.061Z,30.20
2022-09-13T15:26:47.410Z,29.60
2022-09-13T15:29:37.361Z,30.00
2022-09-13T15:32:31.656Z,30.10
2022-09-13T15:35:30.464Z,29.80
2022-09-13T15:38:19.642Z,30.10
2022-09-13T15:41:24.505Z,29.70
2022-09-13T15:44:11.571Z,29.70
2022-09-13T15:47:03.599Z,30.40
2022-09-13T15:49:51.923Z,29.60
2022-09-13T15:52:38.593Z,29.70
2022-09-13T15:55:25.356Z,29.70
2022-09-13T15:58:11.137Z,29.50
2022-09-13T16:00:56.762Z,29.80
2022-09-13T16:03:42.772Z,29.90
2022-09-13T16:06:31.705Z,30.30
2022-09-13T16:09:19.237Z,30.30
2022-09-13T16:12:09.009Z,30.40
2022-09-13T16:14:54.983Z,30.40
2022-09-13T16:17:42.401Z,30.40
2022-09-13T16:20:37.333Z,30.40
2022-09-13T16:23:25.044Z,30.30
2022-09-13T16:26:11.605Z,29.80
2022-09-13T16:28:57.590Z,29.30
2022-09-13T16:31:43.680Z,29.20
2022-09-13T16:34:29.200Z,29.30
2022-09-13T16:37:19.124Z,29.40
2022-09-13T16:40:05.348Z,29.60
2022-09-13T16:42:52.767Z,29.60
2022-09-13T16:45:41.024Z,29.70
2022-09-13T16:48:27.678Z,30.00
2022-09-13T16:51:18.211Z,29.70
2022-09-13T16:54:05.031Z,29.40
2022-09-13T16:56:50.931Z,29.80
2022-09-13T16:59:37.625Z,29.80
2022-09-13T17:02:23.631Z,29.30
2022-09-13T17:05:11.091Z,29.30
2022-09-13T17:07:59.485Z,29.30
2022-09-13T17:10:45.993Z,29.10
2022-09-13T17:13:32.448Z,29.40
2022-09-13T17:16:44.167Z,29.40
2022-09-13T17:19:36.252Z,29.20
2022-09-13T17:22:22.195Z,28.90
2022-09-13T17:25:08.291Z,28.60
2022-09-13T17:27:56.810Z,28.60
2022-09-13T17:30:43.330Z,28.50
2022-09-13T17:33:29.132Z,28.40
2022-09-13T17:36:15.090Z,28.40
2022-09-13T17:39:01.234Z,28.30
2022-09-13T17:41:48.620Z,28.30
2022-09-13T17:44:34.327Z,28.30
2022-09-13T17:47:19.941Z,28.20
2022-09-13T17:50:07.184Z,28.00
2022-09-13T17:52:54.156Z,28.00
2022-09-13T17:55:50.104Z,28.00
2022-09-13T17:58:46.986Z,28.10
2022-09-13T18:01:32.944Z,29.30
2022-09-13T18:04:21.732Z,28.10
2022-09-13T18:07:08.042Z,27.90
2022-09-13T18:09:53.642Z,27.80
2022-09-13T18:12:42.460Z,28.10
2022-09-13T18:15:28.715Z,28.50
2022-09-13T18:18:14.391Z,28.40
2022-09-13T18:21:00.444Z,28.60
2022-09-13T18:23:48.982Z,28.70
2022-09-13T18:26:35.853Z,28.50
2022-09-13T18:29:21.215Z,28.70
2022-09-13T18:32:06.916Z,28.70
2022-09-13T18:34:52.622Z,28.60
2022-09-13T18:37:38.166Z,28.60
2022-09-13T18:40:24.086Z,28.50
2022-09-13T18:43:09.585Z,27.90
2022-09-13T18:46:12.043Z,27.50
2022-09-13T18:48:58.855Z,27.20
2022-09-13T18:51:45.541Z,27.60
2022-09-13T18:54:31.907Z,27.50
2022-09-13T18:57:17.613Z,27.40
2022-09-13T19:00:04.916Z,27.70
2022-09-13T19:03:10.776Z,27.50
2022-09-13T19:05:56.351Z,27.20
2022-09-13T19:08:42.162Z,26.80
2022-09-13T19:11:46.219Z,26.80
2022-09-13T19:14:32.844Z,26.50
2022-09-13T19:17:18.267Z,26.70
2022-09-13T19:20:05.470Z,27.00
2022-09-13T19:22:52.397Z,26.70
2022-09-13T19:25:38.179Z,26.90
2022-09-13T19:28:24.631Z,27.20
2022-09-13T19:31:16.362Z,27.30
2022-09-13T19:34:06.267Z,27.40
2022-09-13T19:36:58.582Z,27.10
2022-09-13T19:39:46.776Z,26.70
2022-09-13T19:42:32.266Z,26.50
2022-09-13T19:45:18.745Z,26.30
2022-09-13T19:51:17.925Z,26.60
2022-09-13T19:54:05.580Z,26.40
2022-09-13T19:56:51.205Z,26.40
2022-09-13T19:59:36.927Z,26.60
2022-09-13T20:02:25.366Z,26.20
2022-09-13T20:05:18.425Z,25.90
2022-09-13T20:08:04.870Z,25.90
2022-09-13T20:10:53.358Z,26.30
2022-09-13T20:13:39.688Z,26.40
2022-09-13T20:16:32.206Z,26.40
2022-09-13T20:22:25.836Z,26.20
2022-09-13T20:25:11.520Z,25.80
2022-09-13T20:27:57.555Z,26.00
2022-09-13T20:30:56.188Z,26.30
2022-09-13T20:33:42.905Z,26.30
2022-09-13T20:36:32.676Z,26.00
2022-09-13T20:39:19.326Z,26.00
2022-09-13T20:42:06.075Z,26.00
2022-09-13T20:44:57.412Z,25.90
2022-09-13T20:47:43.001Z,26.10
2022-09-13T20:50:29.262Z,26.10
2022-09-13T20:53:15.203Z,25.00
2022-09-13T20:56:10.173Z,25.40
2022-09-13T20:58:58.197Z,25.40
2022-09-13T21:01:45.417Z,25.50
2022-09-13T21:04:32.355Z,25.70
2022-09-13T21:07:37.147Z,25.80
2022-09-13T21:10:24.316Z,25.90
2022-09-13T21:13:09.812Z,26.20
2022-09-13T21:15:55.608Z,26.20
2022-09-13T21:18:42.285Z,26.20
2022-09-13T21:21:30.642Z,26.20
2022-09-13T21:24:16.706Z,26.30
2022-09-13T21:27:02.699Z,26.30
2022-09-13T21:29:49.927Z,26.30
2022-09-13T21:32:35.564Z,26.50
2022-09-13T21:35:21.616Z,26.30
2022-09-13T21:38:07.589Z,26.30
2022-09-13T21:41:03.958Z,26.40
2022-09-13T21:43:50.339Z,26.30
2022-09-13T21:46:38.158Z,26.50
2022-09-13T21:49:23.469Z,26.40
2022-09-13T21:52:09.889Z,26.00
2022-09-13T21:54:55.525Z,25.90
2022-09-13T21:57:44.361Z,26.10
2022-09-13T22:00:30.140Z,26.30
2022-09-13T22:03:16.023Z,26.40
2022-09-13T22:06:01.838Z,26.50
2022-09-13T22:08:52.910Z,26.60
2022-09-13T22:11:44.662Z,26.20
2022-09-13T22:14:30.467Z,26.00
2022-09-13T22:17:16.222Z,26.30
2022-09-13T22:20:04.749Z,26.50
2022-09-13T22:22:50.563Z,26.60
2022-09-13T22:25:40.060Z,26.50
2022-09-13T22:28:25.807Z,26.40
2022-09-13T22:31:26.450Z,26.50
2022-09-13T22:34:18.930Z,26.20
2022-09-13T22:37:05.083Z,25.90
2022-09-13T22:39:50.598Z,26.00
2022-09-13T22:42:38.945Z,26.20
2022-09-13T22:45:24.371Z,26.30
2022-09-13T22:48:12.458Z,26.30
2022-09-13T22:50:58.482Z,26.20
2022-09-13T22:53:46.222Z,27.40
2022-09-13T22:56:33.498Z,25.90
2022-09-13T22:59:21.447Z,25.90
2022-09-13T23:02:07.662Z,25.80
2022-09-13T23:04:53.661Z,24.10
2022-09-13T23:07:39.351Z,25.70
2022-09-13T23:10:25.615Z,25.70
2022-09-13T23:13:11.198Z,25.70
2022-09-13T23:16:06.595Z,25.60
2022-09-13T23:18:53.346Z,25.60
2022-09-13T23:21:40.543Z,25.60
2022-09-13T23:24:26.438Z,25.50
2022-09-13T23:27:14.691Z,25.60
2022-09-13T23:30:03.656Z,25.60
2022-09-13T23:32:51.324Z,25.60
2022-09-13T23:35:40.854Z,25.80
2022-09-13T23:38:26.317Z,25.60
2022-09-13T23:41:13.106Z,25.50
2022-09-13T23:43:59.362Z,25.50
2022-09-13T23:46:45.050Z,25.30
2022-09-13T23:52:40.829Z,25.30
2022-09-13T23:55:28.059Z,25.60
2022-09-13T23:58:14.179Z,25.70
